createdAt,value
2023-03-06T00:01:31.711Z,3.33
2023-03-06T00:03:58.654Z,3.34
2023-03-06T00:06:29.539Z,3.33
2023-03-06T00:08:56.331Z,3.31
2023-03-06T00:11:23.161Z,3.29
2023-03-06T00:13:50.502Z,3.32
2023-03-06T00:16:17.393Z,3.32
2023-03-06T00:21:35.531Z,3.34
2023-03-06T00:24:02.282Z,3.33
2023-03-06T00:26:29.130Z,3.32
2023-03-06T00:29:01.090Z,3.30
2023-03-06T00:31:27.951Z,3.29
2023-03-06T00:33:54.830Z,3.26
2023-03-06T00:36:21.670Z,3.27
2023-03-06T00:38:48.491Z,3.24
2023-03-06T00:41:15.309Z,3.22
2023-03-06T00:43:42.299Z,3.22
2023-03-06T00:46:12.091Z,3.19
2023-03-06T00:48:40.163Z,3.18
2023-03-06T00:51:07.087Z,3.14
2023-03-06T00:53:33.986Z,3.22
2023-03-06T00:56:02.031Z,3.21
2023-03-06T00:58:28.894Z,3.26
2023-03-06T01:01:23.205Z,3.26
2023-03-06T01:03:51.061Z,3.23
2023-03-06T01:06:18.800Z,3.25
2023-03-06T01:08:47.738Z,3.26
2023-03-06T01:11:15.059Z,3.28
2023-03-06T01:13:43.890Z,3.29
2023-03-06T01:16:13.738Z,3.27
2023-03-06T01:18:46.109Z,3.23
2023-03-06T01:21:13.710Z,3.26
2023-03-06T01:23:40.781Z,3.29
2023-03-06T01:26:08.218Z,3.23
2023-03-06T01:28:37.667Z,3.25
2023-03-06T01:31:05.518Z,3.26
2023-03-06T01:33:35.138Z,3.28
2023-03-06T01:36:09.840Z,3.28
2023-03-06T01:38:39.237Z,3.21
2023-03-06T01:41:06.793Z,3.20
2023-03-06T01:43:38.143Z,3.20
2023-03-06T01:46:27.046Z,3.16
2023-03-06T01:48:57.826Z,3.12
2023-03-06T01:51:32.047Z,3.04
2023-03-06T01:54:05.506Z,3.10
2023-03-06T01:56:32.533Z,3.16
2023-03-06T01:59:00.114Z,3.20
2023-03-06T02:01:27.279Z,3.21
2023-03-06T02:03:56.042Z,3.19
2023-03-06T02:06:22.960Z,3.25
2023-03-06T02:08:52.419Z,3.24
2023-03-06T02:11:24.723Z,3.24
2023-03-06T02:13:54.028Z,3.27
2023-03-06T02:16:27.165Z,3.34
2023-03-06T02:19:03.049Z,3.38
2023-03-06T02:21:36.331Z,3.39
2023-03-06T02:24:16.544Z,3.35
2023-03-06T02:26:45.393Z,3.30
2023-03-06T02:29:12.396Z,3.33
2023-03-06T02:31:39.433Z,3.32
2023-03-06T02:34:26.550Z,3.33
2023-03-06T02:37:00.819Z,3.34
2023-03-06T02:39:33.377Z,3.33
2023-03-06T02:42:28.053Z,3.29
2023-03-06T02:45:01.040Z,3.30
2023-03-06T02:47:54.051Z,3.32
2023-03-06T02:50:21.011Z,3.28
2023-03-06T02:52:48.851Z,3.26
2023-03-06T02:55:15.690Z,3.23
2023-03-06T02:58:10.066Z,3.24
2023-03-06T03:00:40.128Z,3.22
2023-03-06T03:03:10.020Z,3.20
2023-03-06T03:05:37.659Z,3.19
2023-03-06T03:08:13.059Z,3.16
2023-03-06T03:10:40.089Z,3.13
2023-03-06T03:13:07.170Z,3.16
2023-03-06T03:15:35.952Z,3.16
2023-03-06T03:18:06.749Z,3.17
2023-03-06T03:20:33.539Z,3.15
2023-03-06T03:23:00.615Z,3.16
2023-03-06T03:25:30.482Z,3.15
2023-03-06T03:27:58.218Z,3.13
2023-03-06T03:30:27.032Z,3.12
2023-03-06T03:32:56.273Z,3.14
2023-03-06T03:35:23.474Z,3.11
2023-03-06T03:37:50.543Z,3.10
2023-03-06T03:40:18.067Z,3.12
2023-03-06T03:42:44.798Z,3.15
2023-03-06T03:45:13.472Z,3.14
2023-03-06T03:47:41.599Z,3.14
2023-03-06T03:50:12.058Z,3.11
2023-03-06T03:52:39.995Z,3.13
2023-03-06T03:55:08.149Z,3.13
2023-03-06T03:57:37.642Z,3.10
2023-03-06T04:00:04.799Z,3.09
2023-03-06T04:02:40.616Z,2.96
2023-03-06T04:05:16.402Z,2.84
2023-03-06T04:07:44.327Z,2.73
2023-03-06T04:10:12.807Z,2.70
2023-03-06T04:12:43.112Z,2.69
2023-03-06T04:15:11.957Z,2.70
2023-03-06T04:17:40.708Z,2.72
2023-03-06T04:20:12.374Z,2.75
2023-03-06T04:22:39.700Z,2.82
2023-03-06T04:25:07.035Z,2.87
2023-03-06T04:27:37.541Z,2.90
2023-03-06T04:30:07.271Z,2.88
2023-03-06T04:32:36.861Z,2.85
2023-03-06T04:35:05.406Z,2.79
2023-03-06T04:37:41.323Z,2.75
2023-03-06T04:40:13.157Z,2.73
2023-03-06T04:42:40.349Z,2.73
2023-03-06T04:45:09.687Z,2.70
2023-03-06T04:47:36.658Z,2.69
2023-03-06T04:50:04.741Z,2.66
2023-03-06T04:52:31.683Z,2.71
2023-03-06T04:54:58.548Z,2.83
2023-03-06T04:57:27.168Z,2.92
2023-03-06T04:59:53.904Z,2.91
2023-03-06T05:02:23.517Z,2.88
2023-03-06T05:04:50.244Z,2.80
2023-03-06T05:07:17.062Z,2.77
2023-03-06T05:09:44.010Z,2.74
2023-03-06T05:12:11.588Z,2.69
2023-03-06T05:14:38.451Z,2.72
2023-03-06T05:17:05.302Z,2.73
2023-03-06T05:19:32.241Z,2.76
2023-03-06T05:21:58.979Z,2.74
2023-03-06T05:24:25.970Z,2.75
2023-03-06T05:26:52.870Z,2.76
2023-03-06T05:29:21.300Z,2.79
2023-03-06T05:31:52.014Z,2.61
2023-03-06T05:34:18.833Z,2.50
2023-03-06T05:36:48.275Z,2.35
2023-03-06T05:39:15.606Z,2.21
2023-03-06T05:41:42.341Z,2.12
2023-03-06T05:44:09.620Z,2.08
2023-03-06T05:46:36.580Z,2.05
2023-03-06T05:49:03.400Z,2.06
2023-03-06T05:51:31.528Z,2.01
2023-03-06T05:53:58.308Z,2.01
2023-03-06T05:56:25.188Z,2.03
2023-03-06T05:58:52.003Z,2.02
2023-03-06T06:01:22.398Z,2.05
2023-03-06T06:03:50.297Z,2.07
2023-03-06T06:06:42.041Z,2.07
2023-03-06T06:09:09.980Z,2.09
2023-03-06T06:11:37.779Z,2.09
2023-03-06T06:14:04.529Z,2.10
2023-03-06T06:16:34.167Z,2.11
2023-03-06T06:19:03.594Z,2.20
2023-03-06T06:21:31.333Z,2.24
2023-03-06T06:23:58.604Z,2.23
2023-03-06T06:26:25.408Z,2.25
2023-03-06T06:28:53.587Z,2.28
2023-03-06T06:31:21.226Z,2.29
2023-03-06T06:34:14.156Z,2.32
2023-03-06T06:36:44.936Z,2.31
2023-03-06T06:39:15.315Z,2.38
2023-03-06T06:42:00.299Z,2.39
2023-03-06T06:44:32.656Z,2.46
2023-03-06T06:47:21.850Z,2.54
2023-03-06T06:49:50.678Z,2.59
2023-03-06T06:52:17.788Z,2.59
2023-03-06T06:54:45.417Z,2.56
2023-03-06T06:57:12.895Z,2.56
2023-03-06T06:59:39.735Z,2.55
2023-03-06T07:02:06.622Z,2.57
2023-03-06T07:04:35.165Z,2.60
2023-03-06T07:07:27.269Z,2.61
2023-03-06T07:09:57.174Z,2.64
2023-03-06T07:12:24.688Z,2.76
2023-03-06T07:14:52.142Z,2.88
2023-03-06T07:17:19.004Z,2.97
2023-03-06T07:22:50.258Z,3.08
2023-03-06T07:25:20.240Z,3.10
2023-03-06T07:27:53.371Z,3.14
2023-03-06T07:30:23.435Z,3.13
2023-03-06T07:32:54.261Z,3.14
2023-03-06T07:35:21.522Z,3.22
2023-03-06T07:37:48.229Z,3.27
2023-03-06T07:40:19.750Z,3.29
2023-03-06T07:42:47.509Z,3.31
2023-03-06T07:45:17.787Z,3.43
2023-03-06T07:47:49.411Z,3.56
2023-03-06T07:50:16.723Z,3.60
2023-03-06T07:52:43.542Z,3.63
2023-03-06T07:55:11.758Z,3.69
2023-03-06T07:57:38.611Z,3.74
2023-03-06T08:00:08.485Z,3.81
2023-03-06T08:02:40.810Z,3.77
2023-03-06T08:05:17.178Z,3.77
2023-03-06T08:07:44.923Z,3.77
2023-03-06T08:10:15.979Z,3.86
2023-03-06T08:18:24.358Z,3.86
2023-03-06T08:20:51.139Z,3.92
2023-03-06T08:23:19.752Z,3.98
2023-03-06T08:25:46.516Z,4.01
2023-03-06T08:28:13.606Z,4.02
2023-03-06T08:30:42.404Z,4.08
2023-03-06T08:33:10.046Z,4.23
2023-03-06T08:35:36.914Z,4.24
2023-03-06T08:38:05.323Z,4.26
2023-03-06T08:40:32.077Z,4.25
2023-03-06T08:42:59.065Z,4.28
2023-03-06T08:45:25.914Z,4.36
2023-03-06T08:47:52.815Z,4.44
2023-03-06T08:50:19.669Z,4.39
2023-03-06T08:52:46.736Z,4.41
2023-03-06T08:55:15.085Z,4.42
2023-03-06T08:57:45.197Z,4.44
2023-03-06T09:00:16.871Z,4.47
2023-03-06T09:02:44.251Z,4.50
2023-03-06T09:05:11.486Z,4.53
2023-03-06T09:07:39.160Z,4.54
2023-03-06T09:10:06.370Z,4.63
2023-03-06T09:12:43.900Z,4.65
2023-03-06T09:15:19.044Z,4.70
2023-03-06T09:20:40.162Z,4.71
2023-03-06T09:23:06.873Z,4.77
2023-03-06T09:25:35.864Z,4.79
2023-03-06T09:28:11.413Z,4.82
2023-03-06T09:30:40.875Z,4.82
2023-03-06T09:33:09.330Z,4.80
2023-03-06T09:35:47.402Z,4.83
2023-03-06T09:41:32.327Z,4.87
2023-03-06T09:44:05.271Z,4.88
2023-03-06T09:46:43.727Z,4.89
2023-03-06T09:49:22.964Z,4.93
2023-03-06T09:51:57.346Z,4.95
2023-03-06T09:54:45.589Z,4.99
2023-03-06T09:57:45.253Z,4.98
2023-03-06T10:00:24.401Z,4.98
2023-03-06T10:03:16.043Z,5.02
2023-03-06T10:05:54.913Z,5.09
2023-03-06T10:08:47.308Z,5.13
2023-03-06T10:11:22.364Z,5.15
2023-03-06T10:14:08.287Z,5.15
2023-03-06T10:16:35.300Z,5.18
2023-03-06T10:19:05.191Z,5.24
2023-03-06T10:22:10.322Z,5.21
2023-03-06T10:24:58.865Z,5.23
2023-03-06T10:27:38.303Z,5.28
2023-03-06T10:30:58.854Z,5.28
2023-03-06T10:33:54.901Z,5.33
2023-03-06T10:36:24.860Z,5.29
2023-03-06T10:38:55.200Z,5.34
2023-03-06T10:41:48.902Z,5.38
2023-03-06T10:44:15.670Z,5.41
2023-03-06T10:46:45.949Z,5.44
2023-03-06T10:49:29.197Z,5.45
2023-03-06T10:52:13.940Z,5.42
2023-03-06T10:54:45.283Z,5.43
2023-03-06T10:57:25.799Z,5.51
2023-03-06T10:59:59.367Z,5.52
2023-03-06T11:02:26.187Z,5.57
2023-03-06T11:04:54.614Z,5.66
2023-03-06T11:07:25.993Z,5.66
2023-03-06T11:10:02.671Z,5.65
2023-03-06T11:12:38.439Z,5.71
2023-03-06T11:15:30.419Z,5.72
2023-03-06T11:18:24.121Z,5.81
2023-03-06T11:20:55.313Z,5.92
2023-03-06T11:23:44.619Z,5.92
2023-03-06T11:26:14.039Z,5.88
2023-03-06T11:28:53.315Z,5.89
2023-03-06T11:31:35.441Z,5.95
2023-03-06T11:34:15.261Z,5.94
2023-03-06T11:36:49.716Z,5.94
2023-03-06T11:39:31.749Z,5.94
2023-03-06T11:42:28.428Z,6.02
2023-03-06T11:45:16.608Z,6.04
2023-03-06T11:47:50.027Z,6.04
2023-03-06T11:50:21.832Z,6.05
2023-03-06T11:52:57.197Z,6.13
2023-03-06T11:55:53.171Z,6.07
2023-03-06T11:58:35.863Z,6.04
2023-03-06T12:01:11.465Z,6.13
2023-03-06T12:04:07.956Z,6.05
2023-03-06T12:07:20.218Z,6.13
2023-03-06T12:10:14.088Z,6.02
2023-03-06T12:16:03.126Z,5.85
2023-03-06T12:18:40.412Z,5.91
2023-03-06T12:21:12.829Z,5.96
2023-03-06T12:23:42.450Z,5.94
2023-03-06T12:26:28.138Z,5.95
2023-03-06T12:29:13.144Z,5.97
2023-03-06T12:31:53.607Z,6.02
2023-03-06T12:34:55.689Z,6.14
2023-03-06T12:37:43.879Z,6.22
2023-03-06T12:40:39.168Z,6.21
2023-03-06T12:43:29.290Z,6.13
2023-03-06T12:46:09.559Z,6.20
2023-03-06T12:48:40.097Z,6.22
2023-03-06T12:51:13.730Z,6.24
2023-03-06T12:53:41.910Z,6.31
2023-03-06T12:56:09.514Z,6.31
2023-03-06T12:58:48.292Z,6.47
2023-03-06T13:01:33.761Z,6.59
2023-03-06T13:04:38.167Z,6.58
2023-03-06T13:07:10.842Z,6.57
2023-03-06T13:10:12.688Z,6.59
2023-03-06T13:12:50.850Z,6.61
2023-03-06T13:15:20.467Z,6.63
2023-03-06T13:17:47.268Z,6.54
2023-03-06T13:20:14.029Z,6.50
2023-03-06T13:22:43.060Z,6.58
2023-03-06T13:25:18.625Z,6.62
2023-03-06T13:27:45.451Z,6.71
2023-03-06T13:30:21.582Z,6.70
2023-03-06T13:32:53.208Z,6.60
2023-03-06T13:35:32.274Z,6.61
2023-03-06T13:38:01.338Z,6.66
2023-03-06T13:40:35.626Z,6.65
2023-03-06T13:43:27.426Z,6.65
2023-03-06T13:45:54.376Z,6.64
2023-03-06T13:48:44.140Z,6.67
2023-03-06T13:51:23.746Z,6.66
2023-03-06T13:54:02.864Z,6.70
2023-03-06T13:56:41.009Z,6.76
2023-03-06T14:02:49.271Z,6.78
2023-03-06T14:05:18.041Z,6.92
2023-03-06T14:08:07.976Z,6.95
2023-03-06T14:10:36.673Z,6.98
2023-03-06T14:13:13.173Z,6.99
2023-03-06T14:15:49.449Z,7.01
2023-03-06T14:18:37.975Z,6.96
2023-03-06T14:21:07.179Z,7.03
2023-03-06T14:23:36.953Z,7.03
2023-03-06T14:26:11.446Z,7.16
2023-03-06T14:28:55.296Z,7.08
2023-03-06T14:31:31.459Z,7.07
2023-03-06T14:34:17.938Z,7.13
2023-03-06T14:36:49.905Z,7.14
2023-03-06T14:39:37.138Z,7.08
2023-03-06T14:42:19.629Z,7.07
2023-03-06T14:44:48.326Z,7.05
2023-03-06T14:47:17.844Z,7.02
2023-03-06T14:49:44.668Z,6.98
2023-03-06T14:52:19.532Z,6.99
2023-03-06T14:54:48.313Z,6.99
2023-03-06T14:57:19.434Z,7.03
2023-03-06T14:59:59.986Z,7.02
2023-03-06T15:02:30.639Z,7.03
2023-03-06T15:05:06.185Z,7.10
2023-03-06T15:07:33.991Z,7.10
2023-03-06T15:10:03.281Z,7.11
2023-03-06T15:12:34.672Z,7.09
2023-03-06T15:15:11.412Z,7.08
2023-03-06T15:17:43.362Z,7.11
2023-03-06T15:20:49.567Z,7.16
2023-03-06T15:23:35.900Z,7.12
2023-03-06T15:26:35.511Z,7.07
2023-03-06T15:29:09.919Z,7.08
2023-03-06T15:31:49.732Z,6.99
2023-03-06T15:34:19.894Z,7.03
2023-03-06T15:36:49.210Z,7.04
2023-03-06T15:39:39.756Z,6.97
2023-03-06T15:42:18.309Z,6.90
2023-03-06T15:44:51.157Z,6.91
2023-03-06T15:47:20.458Z,6.90
2023-03-06T15:49:47.602Z,6.83
2023-03-06T15:52:16.065Z,6.78
2023-03-06T15:54:44.502Z,6.79
2023-03-06T15:57:29.469Z,6.80
2023-03-06T15:59:58.643Z,6.78
2023-03-06T16:02:26.603Z,6.84
2023-03-06T16:04:53.812Z,6.82
2023-03-06T16:07:20.993Z,6.82
2023-03-06T16:09:47.934Z,6.75
2023-03-06T16:12:20.599Z,6.70
2023-03-06T16:14:49.242Z,6.66
2023-03-06T16:17:17.011Z,6.66
2023-03-06T16:19:44.754Z,6.69
2023-03-06T16:22:14.303Z,6.67
2023-03-06T16:24:42.841Z,6.63
2023-03-06T16:27:17.703Z,6.56
2023-03-06T16:29:45.152Z,6.54
2023-03-06T16:32:13.682Z,6.59
2023-03-06T16:34:41.152Z,6.57
2023-03-06T16:37:13.192Z,6.55
2023-03-06T16:39:43.912Z,6.60
2023-03-06T16:42:13.401Z,6.53
2023-03-06T16:44:40.640Z,6.46
2023-03-06T16:47:11.784Z,6.42
2023-03-06T16:49:39.078Z,6.37
2023-03-06T16:52:06.470Z,6.34
2023-03-06T16:54:37.504Z,6.33
2023-03-06T16:57:04.878Z,6.37
2023-03-06T16:59:31.794Z,6.35
2023-03-06T17:01:58.959Z,6.33
2023-03-06T17:04:27.295Z,6.33
2023-03-06T17:06:54.187Z,6.34
2023-03-06T17:09:21.980Z,6.32
2023-03-06T17:11:49.331Z,6.30
2023-03-06T17:14:41.397Z,6.28
2023-03-06T17:17:09.856Z,6.30
2023-03-06T17:19:38.456Z,6.32
2023-03-06T17:22:05.702Z,6.35
2023-03-06T17:24:33.371Z,6.36
2023-03-06T17:27:01.193Z,6.29
2023-03-06T17:29:29.273Z,6.26
2023-03-06T17:31:57.175Z,6.30
2023-03-06T17:34:25.332Z,6.34
2023-03-06T17:36:56.526Z,6.40
2023-03-06T17:39:23.927Z,6.47
2023-03-06T17:41:52.325Z,6.44
2023-03-06T17:44:21.619Z,6.29
2023-03-06T17:46:49.090Z,6.30
2023-03-06T17:49:17.652Z,6.06
2023-03-06T17:51:45.188Z,5.90
2023-03-06T17:54:14.068Z,5.79
2023-03-06T17:56:43.713Z,5.71
2023-03-06T17:59:11.640Z,5.79
2023-03-06T18:01:38.839Z,5.78
2023-03-06T18:04:06.714Z,5.86
2023-03-06T18:06:34.367Z,5.76
2023-03-06T18:09:05.830Z,5.52
2023-03-06T18:11:34.033Z,5.35
2023-03-06T18:14:01.237Z,5.23
2023-03-06T18:16:28.676Z,5.16
2023-03-06T18:18:57.655Z,5.14
2023-03-06T18:21:25.876Z,5.10
2023-03-06T18:23:58.327Z,5.06
2023-03-06T18:26:28.239Z,5.04
2023-03-06T18:29:00.359Z,5.01
2023-03-06T18:31:34.663Z,5.01
2023-03-06T18:34:07.750Z,4.96
2023-03-06T18:36:37.657Z,4.97
2023-03-06T18:39:13.808Z,4.97
2023-03-06T18:41:43.033Z,4.94
2023-03-06T18:44:15.074Z,4.98
2023-03-06T18:46:45.958Z,4.99
2023-03-06T18:49:15.065Z,5.16
2023-03-06T18:51:44.916Z,5.28
2023-03-06T18:54:12.999Z,5.32
2023-03-06T18:56:40.270Z,5.35
2023-03-06T18:59:13.132Z,5.40
2023-03-06T19:01:44.763Z,5.55
2023-03-06T19:04:13.249Z,5.60
2023-03-06T19:06:44.423Z,5.60
2023-03-06T19:09:11.493Z,5.63
2023-03-06T19:11:39.150Z,5.63
2023-03-06T19:14:11.382Z,5.59
2023-03-06T19:16:39.563Z,5.55
2023-03-06T19:19:07.607Z,5.50
2023-03-06T19:21:35.787Z,5.45
2023-03-06T19:24:05.085Z,5.36
2023-03-06T19:26:35.139Z,5.29
2023-03-06T19:29:06.735Z,5.25
2023-03-06T19:31:34.570Z,5.23
2023-03-06T19:34:02.298Z,5.19
2023-03-06T19:36:33.285Z,5.13
2023-03-06T19:39:04.318Z,5.11
2023-03-06T19:41:31.956Z,5.15
2023-03-06T19:44:01.559Z,5.10
2023-03-06T19:46:32.806Z,5.08
2023-03-06T19:49:02.177Z,5.03
2023-03-06T19:51:55.835Z,5.04
2023-03-06T19:54:25.038Z,4.98
2023-03-06T19:56:53.438Z,4.94
2023-03-06T19:59:52.949Z,4.93
2023-03-06T20:02:20.554Z,5.01
2023-03-06T20:04:49.855Z,5.04
2023-03-06T20:07:17.780Z,5.02
2023-03-06T20:09:47.338Z,5.01
2023-03-06T20:12:17.652Z,5.03
2023-03-06T20:14:45.662Z,5.06
2023-03-06T20:17:13.401Z,5.04
2023-03-06T20:19:41.892Z,5.03
2023-03-06T20:22:10.473Z,4.98
2023-03-06T20:24:39.900Z,4.97
2023-03-06T20:27:08.658Z,4.95
2023-03-06T20:29:38.347Z,4.94
2023-03-06T20:32:05.739Z,4.93
2023-03-06T20:34:33.543Z,4.95
2023-03-06T20:37:01.369Z,4.85
2023-03-06T20:39:33.265Z,4.77
2023-03-06T20:42:01.540Z,4.73
2023-03-06T20:44:30.000Z,4.69
2023-03-06T20:46:57.913Z,4.75
2023-03-06T20:49:27.721Z,4.77
2023-03-06T20:51:59.361Z,4.80
2023-03-06T20:54:27.736Z,4.85
2023-03-06T20:56:56.816Z,4.80
2023-03-06T20:59:24.372Z,4.82
2023-03-06T21:01:54.502Z,4.82
2023-03-06T21:04:23.346Z,4.78
2023-03-06T21:06:53.429Z,4.75
2023-03-06T21:09:20.884Z,4.78
2023-03-06T21:11:49.718Z,4.81
2023-03-06T21:14:41.714Z,4.86
2023-03-06T21:17:13.825Z,4.85
2023-03-06T21:19:41.297Z,4.86
2023-03-06T21:22:10.401Z,4.87
2023-03-06T21:24:37.362Z,4.89
2023-03-06T21:27:04.593Z,4.89
2023-03-06T21:29:31.603Z,4.88
2023-03-06T21:32:03.568Z,4.93
2023-03-06T21:34:34.351Z,4.94
2023-03-06T21:37:01.178Z,4.89
2023-03-06T21:42:20.386Z,4.80
2023-03-06T21:44:47.199Z,4.80
2023-03-06T21:47:14.045Z,4.69
2023-03-06T21:49:41.009Z,4.68
2023-03-06T21:52:08.892Z,4.63
2023-03-06T21:55:00.859Z,4.65
2023-03-06T21:57:27.755Z,4.67
2023-03-06T21:59:54.575Z,4.72
2023-03-06T22:02:21.631Z,4.78
2023-03-06T22:04:54.849Z,4.78
2023-03-06T22:07:21.869Z,4.77
2023-03-06T22:09:51.619Z,4.80
2023-03-06T22:12:20.380Z,4.81
2023-03-06T22:14:47.990Z,4.83
2023-03-06T22:17:14.880Z,4.76
2023-03-06T22:19:41.663Z,4.73
2023-03-06T22:22:10.685Z,4.77
2023-03-06T22:24:37.617Z,4.74
2023-03-06T22:27:05.269Z,4.69
2023-03-06T22:29:32.660Z,4.64
2023-03-06T22:31:59.501Z,4.65
2023-03-06T22:34:26.401Z,4.71
2023-03-06T22:36:53.351Z,4.75
2023-03-06T22:39:20.184Z,4.73
2023-03-06T22:41:47.019Z,4.78
2023-03-06T22:44:19.351Z,4.74
2023-03-06T22:46:46.491Z,4.72
2023-03-06T22:49:14.727Z,4.68
2023-03-06T22:51:41.865Z,4.63
2023-03-06T22:54:09.174Z,4.54
2023-03-06T22:56:35.978Z,4.57
2023-03-06T22:59:03.219Z,4.54
2023-03-06T23:01:32.894Z,4.57
2023-03-06T23:04:02.276Z,4.54
2023-03-06T23:06:35.298Z,4.62
2023-03-06T23:09:17.465Z,4.54
2023-03-06T23:12:03.126Z,4.52
2023-03-06T23:14:48.473Z,4.42
2023-03-06T23:17:34.444Z,4.39
2023-03-06T23:20:19.745Z,4.41
2023-03-06T23:23:05.317Z,4.35
2023-03-06T23:25:44.879Z,4.36
2023-03-06T23:28:12.266Z,4.35
2023-03-06T23:30:40.498Z,4.42
2023-03-06T23:33:09.680Z,4.41
2023-03-06T23:35:37.611Z,4.34
2023-03-06T23:38:05.317Z,4.31
2023-03-06T23:40:33.552Z,4.31
2023-03-06T23:45:56.293Z,4.28
2023-03-06T23:48:23.381Z,4.25
2023-03-06T23:50:50.144Z,4.20
2023-03-06T23:53:18.564Z,4.19
2023-03-06T23:55:48.130Z,4.08
2023-03-06T23:58:16.055Z,4.10
